createdAt,value
2019-05-20T00:00:43.115Z,15.35
2019-05-20T00:03:45.119Z,15.47
2019-05-20T00:06:47.068Z,15.49
2019-05-20T00:09:49.014Z,15.51
2019-05-20T00:12:50.925Z,15.52
2019-05-20T00:15:52.941Z,15.51
2019-05-20T00:18:54.823Z,15.49
2019-05-20T00:21:56.741Z,15.44
2019-05-20T00:24:58.854Z,15.41
2019-05-20T00:28:00.820Z,15.37
2019-05-20T00:31:02.771Z,15.34
2019-05-20T00:34:04.738Z,15.30
2019-05-20T00:37:06.713Z,15.18
2019-05-20T00:40:10.139Z,15.01
2019-05-20T00:43:12.072Z,14.97
2019-05-20T00:46:14.005Z,14.96
2019-05-20T00:49:16.030Z,14.93
2019-05-20T00:52:17.934Z,14.90
2019-05-20T00:55:23.261Z,14.87
2019-05-20T00:58:25.354Z,14.72
2019-05-20T01:01:27.343Z,14.52
2019-05-20T01:04:29.262Z,14.57
2019-05-20T01:07:31.228Z,14.66
2019-05-20T01:10:33.156Z,14.68
2019-05-20T01:13:35.163Z,14.65
2019-05-20T01:16:37.083Z,14.60
2019-05-20T01:19:39.001Z,14.58
2019-05-20T01:22:40.905Z,14.60
2019-05-20T01:25:42.945Z,14.58
2019-05-20T01:28:44.887Z,14.65
2019-05-20T01:31:46.778Z,14.71
2019-05-20T01:34:49.155Z,14.75
2019-05-20T01:37:51.116Z,14.72
2019-05-20T01:40:53.073Z,14.68
2019-05-20T01:43:55.069Z,14.52
2019-05-20T01:46:56.985Z,14.40
2019-05-20T01:49:58.917Z,14.34
2019-05-20T01:53:00.872Z,14.37
2019-05-20T01:56:03.232Z,14.38
2019-05-20T01:59:05.764Z,14.42
2019-05-20T02:02:07.735Z,14.43
2019-05-20T02:05:09.943Z,14.38
2019-05-20T02:08:11.858Z,14.33
2019-05-20T02:11:13.779Z,14.23
2019-05-20T02:14:17.536Z,14.11
2019-05-20T02:17:19.538Z,14.03
2019-05-20T02:20:21.523Z,14.03
2019-05-20T02:23:23.741Z,14.03
2019-05-20T02:26:25.828Z,14.07
2019-05-20T02:29:27.914Z,13.97
2019-05-20T02:32:31.154Z,13.98
2019-05-20T02:35:33.083Z,14.00
2019-05-20T02:38:34.954Z,14.03
2019-05-20T02:41:36.852Z,14.07
2019-05-20T02:44:38.875Z,14.22
2019-05-20T02:47:40.822Z,14.31
2019-05-20T02:50:42.836Z,14.38
2019-05-20T02:53:44.698Z,14.41
2019-05-20T02:56:46.659Z,14.39
2019-05-20T02:59:48.629Z,14.34
2019-05-20T03:02:50.630Z,14.29
2019-05-20T03:05:52.592Z,14.22
2019-05-20T03:08:54.510Z,14.16
2019-05-20T03:11:56.387Z,14.12
2019-05-20T03:14:58.342Z,14.08
2019-05-20T03:18:00.221Z,14.09
2019-05-20T03:21:02.231Z,14.16
2019-05-20T03:24:04.155Z,14.32
2019-05-20T03:27:06.220Z,14.50
2019-05-20T03:30:09.322Z,14.73
2019-05-20T03:33:11.313Z,14.89
2019-05-20T03:36:13.261Z,15.04
2019-05-20T03:39:15.228Z,15.41
2019-05-20T03:42:17.152Z,15.98
2019-05-20T03:45:19.191Z,16.46
2019-05-20T03:48:21.109Z,17.20
2019-05-20T03:51:23.116Z,18.08
2019-05-20T03:54:25.041Z,18.91
2019-05-20T03:57:28.119Z,19.32
2019-05-20T04:00:45.218Z,19.69
2019-05-20T04:03:48.306Z,20.37
2019-05-20T04:06:50.427Z,20.45
2019-05-20T04:09:52.346Z,20.11
2019-05-20T04:12:54.392Z,19.52
2019-05-20T04:15:56.352Z,19.15
2019-05-20T04:18:58.389Z,18.82
2019-05-20T04:22:00.486Z,18.59
2019-05-20T04:25:04.515Z,18.44
2019-05-20T04:28:06.687Z,18.50
2019-05-20T04:31:08.664Z,18.96
2019-05-20T04:34:10.612Z,19.23
2019-05-20T04:37:12.615Z,19.15
2019-05-20T04:40:14.711Z,19.02
2019-05-20T04:43:16.721Z,18.93
2019-05-20T04:46:18.758Z,18.90
2019-05-20T04:49:20.701Z,18.87
2019-05-20T04:52:22.830Z,18.80
2019-05-20T04:55:24.868Z,18.73
2019-05-20T04:58:26.914Z,18.73
2019-05-20T05:01:29.445Z,18.71
2019-05-20T05:04:31.442Z,18.63
2019-05-20T05:07:33.342Z,18.53
2019-05-20T05:10:35.315Z,18.52
2019-05-20T05:13:37.269Z,18.59
2019-05-20T05:16:39.279Z,18.68
2019-05-20T05:19:41.341Z,18.75
2019-05-20T05:22:43.364Z,18.82
2019-05-20T05:25:45.264Z,18.99
2019-05-20T05:28:47.478Z,19.23
2019-05-20T05:31:49.390Z,19.42
2019-05-20T05:34:51.392Z,19.52
2019-05-20T05:37:54.434Z,19.54
2019-05-20T05:40:56.526Z,19.51
2019-05-20T05:43:58.541Z,19.38
2019-05-20T05:47:00.623Z,19.02
2019-05-20T05:50:06.999Z,18.72
2019-05-20T05:53:08.969Z,18.62
2019-05-20T05:56:10.970Z,18.56
2019-05-20T05:59:12.934Z,18.48
2019-05-20T06:02:15.003Z,18.27
2019-05-20T06:05:16.902Z,18.13
2019-05-20T06:08:19.074Z,18.19
2019-05-20T06:11:21.186Z,18.50
2019-05-20T06:14:23.190Z,18.89
2019-05-20T06:17:25.189Z,19.10
2019-05-20T06:20:27.162Z,19.28
2019-05-20T06:23:29.134Z,19.57
2019-05-20T06:26:31.063Z,19.73
2019-05-20T06:29:33.269Z,19.73
2019-05-20T06:32:35.238Z,19.54
2019-05-20T06:35:37.347Z,19.44
2019-05-20T06:38:41.344Z,19.30
2019-05-20T06:41:43.370Z,19.20
2019-05-20T06:44:52.869Z,19.17
2019-05-20T06:47:49.308Z,19.04
2019-05-20T06:50:51.259Z,19.14
2019-05-20T06:53:53.229Z,19.29
2019-05-20T06:56:55.292Z,19.44
2019-05-20T06:59:57.377Z,19.58
2019-05-20T07:03:00.312Z,19.66
2019-05-20T07:06:02.270Z,19.71
2019-05-20T07:09:05.510Z,19.75
2019-05-20T07:12:07.439Z,19.77
2019-05-20T07:15:09.500Z,19.87
2019-05-20T07:18:11.726Z,19.95
2019-05-20T07:21:13.800Z,20.07
2019-05-20T07:24:15.739Z,20.11
2019-05-20T07:27:18.086Z,20.21
2019-05-20T07:30:20.299Z,20.31
2019-05-20T07:33:22.231Z,20.39
2019-05-20T07:36:24.186Z,20.52
2019-05-20T07:39:26.153Z,20.62
2019-05-20T07:42:28.152Z,20.74
2019-05-20T07:45:32.567Z,20.58
2019-05-20T07:48:34.720Z,20.69
2019-05-20T07:51:37.800Z,20.83
2019-05-20T07:54:40.358Z,21.04
2019-05-20T07:57:44.025Z,21.22
2019-05-20T08:00:45.961Z,21.34
2019-05-20T08:03:47.963Z,21.35
2019-05-20T08:06:49.940Z,21.34
2019-05-20T08:09:51.826Z,21.22
2019-05-20T08:12:53.792Z,21.21
2019-05-20T08:15:55.746Z,21.20
2019-05-20T08:18:57.728Z,21.36
2019-05-20T08:21:59.766Z,21.55
2019-05-20T08:25:03.433Z,21.63
2019-05-20T08:28:05.388Z,21.72
2019-05-20T08:31:07.342Z,21.87
2019-05-20T08:34:09.384Z,22.38
2019-05-20T08:37:12.398Z,22.38
2019-05-20T08:40:14.539Z,22.91
2019-05-20T08:43:16.542Z,23.07
2019-05-20T08:46:18.625Z,22.82
2019-05-20T08:49:20.617Z,22.52
2019-05-20T08:52:22.628Z,22.47
2019-05-20T08:55:24.574Z,22.47
2019-05-20T08:58:26.550Z,21.92
2019-05-20T09:01:28.474Z,21.92
2019-05-20T09:04:30.403Z,21.58
2019-05-20T09:07:32.392Z,21.41
2019-05-20T09:10:34.449Z,21.43
2019-05-20T09:13:36.471Z,21.48
2019-05-20T09:19:40.256Z,21.46
2019-05-20T09:22:42.250Z,21.52
2019-05-20T09:25:44.239Z,21.55
2019-05-20T09:28:46.299Z,21.45
2019-05-20T09:31:48.522Z,21.42
2019-05-20T09:34:50.543Z,21.43
2019-05-20T09:37:52.653Z,21.73
2019-05-20T09:40:54.629Z,22.06
2019-05-20T09:43:56.620Z,22.29
2019-05-20T09:46:58.559Z,22.63
2019-05-20T09:50:00.519Z,23.26
2019-05-20T09:53:06.496Z,23.68
2019-05-20T09:56:06.423Z,23.63
2019-05-20T09:59:08.400Z,23.63
2019-05-20T10:02:10.348Z,23.49
2019-05-20T10:05:12.260Z,22.98
2019-05-20T10:08:14.232Z,22.52
2019-05-20T10:11:16.302Z,21.96
2019-05-20T10:14:18.268Z,21.75
2019-05-20T10:17:20.330Z,21.62
2019-05-20T10:20:22.372Z,21.89
2019-05-20T10:23:24.330Z,22.17
2019-05-20T10:26:26.314Z,22.41
2019-05-20T10:29:28.393Z,22.26
2019-05-20T10:32:30.339Z,22.05
2019-05-20T10:35:32.314Z,21.94
2019-05-20T10:38:34.295Z,21.75
2019-05-20T10:41:36.262Z,21.55
2019-05-20T10:44:41.723Z,21.71
2019-05-20T10:47:42.155Z,21.89
2019-05-20T10:50:44.237Z,22.27
2019-05-20T10:53:46.261Z,22.53
2019-05-20T10:56:48.392Z,22.80
2019-05-20T10:59:50.360Z,23.22
2019-05-20T11:02:53.312Z,22.77
2019-05-20T11:05:55.276Z,22.83
2019-05-20T11:09:11.710Z,22.86
2019-05-20T11:12:01.070Z,23.00
2019-05-20T11:15:06.077Z,23.24
2019-05-20T11:18:08.076Z,23.17
2019-05-20T11:21:10.036Z,23.13
2019-05-20T11:24:12.015Z,23.39
2019-05-20T11:27:13.948Z,23.68
2019-05-20T11:30:16.001Z,23.68
2019-05-20T11:33:17.913Z,23.58
2019-05-20T11:36:21.016Z,23.74
2019-05-20T11:39:33.468Z,23.70
2019-05-20T11:42:26.871Z,23.78
2019-05-20T11:45:28.858Z,23.95
2019-05-20T11:48:30.811Z,24.11
2019-05-20T11:51:32.763Z,24.25
2019-05-20T11:54:34.778Z,24.07
2019-05-20T11:57:36.713Z,24.13
2019-05-20T12:00:38.782Z,24.13
2019-05-20T12:03:40.726Z,24.42
2019-05-20T12:06:42.756Z,24.68
2019-05-20T12:09:49.516Z,24.72
2019-05-20T12:12:48.542Z,24.31
2019-05-20T12:15:50.586Z,23.64
2019-05-20T12:18:52.598Z,23.24
2019-05-20T12:21:54.569Z,22.91
2019-05-20T12:24:56.602Z,22.80
2019-05-20T12:27:58.505Z,22.81
2019-05-20T12:31:00.438Z,22.86
2019-05-20T12:34:02.575Z,22.62
2019-05-20T12:37:04.470Z,22.41
2019-05-20T12:40:08.097Z,22.53
2019-05-20T12:43:10.648Z,22.76
2019-05-20T12:46:12.713Z,22.65
2019-05-20T12:49:14.920Z,22.55
2019-05-20T12:52:16.936Z,22.70
2019-05-20T12:55:18.988Z,23.09
2019-05-20T12:58:21.029Z,23.56
2019-05-20T13:01:22.949Z,23.79
2019-05-20T13:04:25.005Z,23.98
2019-05-20T13:07:27.022Z,24.07
2019-05-20T13:10:32.048Z,24.11
2019-05-20T13:13:34.725Z,24.01
2019-05-20T13:16:36.673Z,23.92
2019-05-20T13:19:38.642Z,23.52
2019-05-20T13:22:40.634Z,23.11
2019-05-20T13:25:42.596Z,23.05
2019-05-20T13:28:44.622Z,23.09
2019-05-20T13:31:46.505Z,23.20
2019-05-20T13:34:48.559Z,23.30
2019-05-20T13:37:50.548Z,23.21
2019-05-20T13:40:52.477Z,23.03
2019-05-20T13:43:54.686Z,23.08
2019-05-20T13:46:56.636Z,23.18
2019-05-20T13:49:59.971Z,22.98
2019-05-20T13:53:02.120Z,23.00
2019-05-20T13:56:04.165Z,22.93
2019-05-20T13:59:06.267Z,23.05
2019-05-20T14:02:08.314Z,22.91
2019-05-20T14:05:10.471Z,22.85
2019-05-20T14:08:12.643Z,22.94
2019-05-20T14:11:14.637Z,23.08
2019-05-20T14:14:16.601Z,23.49
2019-05-20T14:17:18.637Z,23.64
2019-05-20T14:20:20.637Z,23.94
2019-05-20T14:23:22.595Z,24.09
2019-05-20T14:26:24.601Z,24.10
2019-05-20T14:29:26.910Z,24.18
2019-05-20T14:32:28.926Z,24.32
2019-05-20T14:35:31.024Z,24.35
2019-05-20T14:38:33.035Z,23.86
2019-05-20T14:41:34.962Z,23.17
2019-05-20T14:44:37.278Z,22.72
2019-05-20T14:47:39.235Z,22.56
2019-05-20T14:50:42.332Z,22.37
2019-05-20T14:53:44.316Z,22.43
2019-05-20T14:56:47.957Z,22.24
2019-05-20T14:59:50.035Z,22.12
2019-05-20T15:02:52.114Z,22.04
2019-05-20T15:05:54.191Z,22.08
2019-05-20T15:08:56.302Z,22.05
2019-05-20T15:11:58.317Z,22.10
2019-05-20T15:15:00.357Z,22.20
2019-05-20T15:18:02.299Z,22.22
2019-05-20T15:21:05.303Z,22.28
2019-05-20T15:24:08.544Z,22.36
2019-05-20T15:27:10.643Z,22.53
2019-05-20T15:30:12.841Z,22.43
2019-05-20T15:33:14.837Z,22.21
2019-05-20T15:36:16.944Z,22.14
2019-05-20T15:39:18.896Z,22.14
2019-05-20T15:42:20.854Z,22.10
2019-05-20T15:45:22.898Z,21.82
2019-05-20T15:48:24.958Z,21.82
2019-05-20T15:51:27.021Z,21.90
2019-05-20T15:54:29.137Z,21.78
2019-05-20T15:57:31.104Z,21.61
2019-05-20T16:00:34.293Z,21.63
2019-05-20T16:03:39.706Z,21.56
2019-05-20T16:06:41.702Z,21.53
2019-05-20T16:09:44.147Z,21.64
2019-05-20T16:12:46.046Z,21.61
2019-05-20T16:15:48.101Z,21.76
2019-05-20T16:18:51.581Z,21.98
2019-05-20T16:21:54.821Z,22.04
2019-05-20T16:24:56.742Z,22.10
2019-05-20T16:27:58.696Z,22.24
2019-05-20T16:31:00.656Z,22.43
2019-05-20T16:34:02.684Z,22.62
2019-05-20T16:37:04.752Z,22.64
2019-05-20T16:40:07.923Z,22.67
2019-05-20T16:43:10.026Z,22.73
2019-05-20T16:46:12.173Z,22.77
2019-05-20T16:49:14.205Z,22.76
2019-05-20T16:52:17.598Z,22.44
2019-05-20T16:55:19.552Z,22.13
2019-05-20T16:58:21.692Z,21.97
2019-05-20T17:01:23.771Z,21.82
2019-05-20T17:04:26.104Z,21.77
2019-05-20T17:07:28.486Z,21.69
2019-05-20T17:10:30.659Z,21.53
2019-05-20T17:13:33.513Z,21.41
2019-05-20T17:16:35.494Z,21.17
2019-05-20T17:19:37.413Z,21.17
2019-05-20T17:22:41.262Z,21.11
2019-05-20T17:25:43.293Z,21.00
2019-05-20T17:28:45.432Z,20.86
2019-05-20T17:31:49.268Z,20.74
2019-05-20T17:34:51.625Z,20.74
2019-05-20T17:37:55.516Z,20.60
2019-05-20T17:40:57.573Z,20.49
2019-05-20T17:43:59.514Z,20.42
2019-05-20T17:47:01.501Z,20.28
2019-05-20T17:50:05.821Z,20.19
2019-05-20T17:53:07.911Z,20.09
2019-05-20T17:56:13.090Z,19.99
2019-05-20T17:59:15.439Z,19.94
2019-05-20T18:02:17.449Z,19.86
2019-05-20T18:05:19.520Z,19.77
2019-05-20T18:08:26.033Z,19.60
2019-05-20T18:11:28.162Z,19.35
2019-05-20T18:14:30.654Z,19.19
2019-05-20T18:17:33.778Z,19.09
2019-05-20T18:20:35.708Z,19.12
2019-05-20T18:23:38.009Z,19.17
2019-05-20T18:26:39.972Z,19.13
2019-05-20T18:29:41.956Z,18.96
2019-05-20T18:32:44.369Z,18.75
2019-05-20T18:35:46.518Z,18.50
2019-05-20T18:38:49.664Z,18.34
2019-05-20T18:41:53.979Z,18.15
2019-05-20T18:44:57.106Z,18.05
2019-05-20T18:47:59.195Z,17.91
2019-05-20T18:51:01.464Z,17.76
2019-05-20T18:54:03.834Z,17.72
2019-05-20T18:57:07.613Z,17.76
2019-05-20T19:00:10.873Z,17.65
2019-05-20T19:03:13.901Z,17.65
2019-05-20T19:06:17.701Z,17.66
2019-05-20T19:09:19.745Z,17.65
2019-05-20T19:12:21.834Z,17.62
2019-05-20T19:15:23.854Z,17.49
2019-05-20T19:18:29.751Z,17.27
2019-05-20T19:21:31.766Z,17.05
2019-05-20T19:24:36.404Z,16.78
2019-05-20T19:27:38.474Z,16.57
2019-05-20T19:30:40.402Z,16.40
2019-05-20T19:33:42.427Z,16.25
2019-05-20T19:36:45.532Z,16.11
2019-05-20T19:39:49.465Z,16.01
2019-05-20T19:42:52.224Z,16.00
2019-05-20T19:45:55.229Z,16.00
2019-05-20T19:48:57.271Z,15.94
2019-05-20T19:51:59.300Z,15.84
2019-05-20T19:55:01.448Z,15.82
2019-05-20T19:58:06.441Z,15.80
2019-05-20T20:01:08.416Z,15.77
2019-05-20T20:04:10.406Z,15.83
2019-05-20T20:07:12.978Z,15.95
2019-05-20T20:10:16.680Z,15.99
2019-05-20T20:13:21.280Z,16.06
2019-05-20T20:16:24.476Z,16.18
2019-05-20T20:19:31.241Z,16.24
2019-05-20T20:22:33.239Z,16.25
2019-05-20T20:25:36.607Z,16.26
2019-05-20T20:28:40.036Z,16.19
2019-05-20T20:31:43.399Z,16.12
2019-05-20T20:34:47.013Z,16.10
2019-05-20T20:37:48.996Z,16.10
2019-05-20T20:40:52.731Z,16.10
2019-05-20T20:43:54.778Z,16.10
2019-05-20T20:46:56.826Z,16.18
2019-05-20T20:49:58.883Z,16.26
2019-05-20T20:53:00.794Z,16.33
2019-05-20T20:56:04.602Z,16.35
2019-05-20T20:59:06.648Z,16.36
2019-05-20T21:02:08.684Z,16.33
2019-05-20T21:05:11.564Z,16.21
2019-05-20T21:08:13.599Z,15.96
2019-05-20T21:11:16.186Z,15.78
2019-05-20T21:14:18.132Z,15.65
2019-05-20T21:17:20.084Z,15.56
2019-05-20T21:20:22.093Z,15.56
2019-05-20T21:23:25.687Z,15.33
2019-05-20T21:26:27.762Z,15.18
2019-05-20T21:29:32.428Z,15.00
2019-05-20T21:32:33.583Z,14.87
2019-05-20T21:35:35.550Z,14.82
2019-05-20T21:38:37.510Z,14.89
2019-05-20T21:41:39.592Z,14.92
2019-05-20T21:44:41.499Z,15.00
2019-05-20T21:47:44.785Z,14.95
2019-05-20T21:50:47.142Z,14.96
2019-05-20T21:53:49.176Z,15.03
2019-05-20T21:56:51.049Z,15.10
2019-05-20T21:59:54.038Z,15.14
2019-05-20T22:02:57.176Z,15.07
2019-05-20T22:05:59.220Z,15.00
2019-05-20T22:09:04.607Z,14.99
2019-05-20T22:12:06.624Z,14.92
2019-05-20T22:15:08.628Z,14.92
2019-05-20T22:18:10.661Z,14.96
2019-05-20T22:21:14.402Z,15.02
2019-05-20T22:24:16.427Z,15.01
2019-05-20T22:27:18.383Z,14.99
2019-05-20T22:30:20.425Z,15.02
2019-05-20T22:33:22.378Z,15.00
2019-05-20T22:36:24.386Z,14.86
2019-05-20T22:39:26.268Z,14.70
2019-05-20T22:42:28.319Z,14.45
2019-05-20T22:45:31.956Z,14.34
2019-05-20T22:48:33.905Z,14.14
2019-05-20T22:51:35.884Z,14.10
2019-05-20T22:54:37.889Z,13.80
2019-05-20T22:57:39.778Z,13.72
2019-05-20T23:00:41.782Z,13.65
2019-05-20T23:03:55.662Z,13.57
2019-05-20T23:06:47.674Z,13.49
2019-05-20T23:09:49.667Z,13.36
2019-05-20T23:12:51.616Z,13.20
2019-05-20T23:15:55.689Z,13.09
2019-05-20T23:18:57.386Z,13.06
2019-05-20T23:21:59.340Z,13.03
2019-05-20T23:25:01.278Z,12.93
2019-05-20T23:28:04.388Z,12.86
2019-05-20T23:31:06.339Z,12.79
2019-05-20T23:34:12.879Z,12.74
2019-05-20T23:37:12.117Z,12.68
2019-05-20T23:40:13.985Z,12.64
2019-05-20T23:43:16.123Z,12.65
2019-05-20T23:46:18.388Z,12.65
2019-05-20T23:49:20.394Z,12.61
2019-05-20T23:52:22.301Z,12.60
2019-05-20T23:55:24.854Z,12.60
2019-05-20T23:58:26.810Z,12.64
